Time;durP1;ratioP1;P1;durP2;ratioP2;P2;SDS_P1;SDS_P2;PMS_P1;PMS_P2;Temp;Humidity;BMP_temperature;BMP_pressure;BME280_temperature;BME280_humidity;BME280_pressure;Samples;Min_cycle;Max_cycle;Signal;HPM_P1;HPM_P2
2022/07/28 00:00:13;;;;;;;4.67;1.57;;;;;;;;;;5000946;28;20199;-70
2022/07/28 00:02:39;;;;;;;4.57;1.63;;;;;;;;;;5005374;28;20222;-71
2022/07/28 00:05:06;;;;;;;4.20;1.97;;;;;;;;;;4991778;28;20196;-70
2022/07/28 00:07:33;;;;;;;5.27;1.87;;;;;;;;;;5004692;28;20207;-71
2022/07/28 00:10:00;;;;;;;6.53;1.87;;;;;;;;;;5027317;28;20222;-72
2022/07/28 00:12:27;;;;;;;8.10;1.77;;;;;;;;;;5032485;28;20223;-71
2022/07/28 00:15:11;;;;;;;5.60;1.80;;;;;;;;;;5013998;28;20171;-71
2022/07/28 00:17:38;;;;;;;4.23;1.60;;;;;;;;;;5004542;28;20245;-71
2022/07/28 00:20:06;;;;;;;6.20;1.60;;;;;;;;;;5028529;28;20215;-71
2022/07/28 00:22:33;;;;;;;8.17;1.93;;;;;;;;;;5010631;28;20257;-70
2022/07/28 00:24:59;;;;;;;6.20;1.70;;;;;;;;;;5023939;28;20303;-70
2022/07/28 00:27:26;;;;;;;2.17;1.40;;;;;;;;;;5023955;28;20192;-71
2022/07/28 00:29:53;;;;;;;8.07;2.30;;;;;;;;;;5019946;28;20757;-71
2022/07/28 00:32:20;;;;;;;5.97;1.90;;;;;;;;;;5027620;28;20200;-71
2022/07/28 00:34:47;;;;;;;4.53;1.60;;;;;;;;;;5030348;28;20195;-70
2022/07/28 00:37:18;;;;;;;6.37;1.87;;;;;;;;;;5029129;28;20245;-70
2022/07/28 00:39:45;;;;;;;7.80;1.90;;;;;;;;;;5020364;28;20268;-70
2022/07/28 00:42:11;;;;;;;8.90;2.10;;;;;;;;;;5030669;28;20337;-72
2022/07/28 00:44:40;;;;;;;6.30;1.70;;;;;;;;;;5011119;28;20204;-71
2022/07/28 00:47:07;;;;;;;7.93;2.00;;;;;;;;;;5007478;28;20195;-70
2022/07/28 00:49:34;;;;;;;7.70;2.00;;;;;;;;;;5009241;28;20208;-71
2022/07/28 00:52:01;;;;;;;4.87;1.80;;;;;;;;;;5024017;28;20623;-70
2022/07/28 00:54:28;;;;;;;4.30;1.83;;;;;;;;;;5008773;28;20230;-70
2022/07/28 00:56:55;;;;;;;5.37;1.97;;;;;;;;;;5002638;28;21024;-70
2022/07/28 00:59:39;;;;;;;4.20;1.73;;;;;;;;;;5029418;28;20183;-70
2022/07/28 01:02:06;;;;;;;4.53;1.70;;;;;;;;;;5009346;28;20228;-70
2022/07/28 01:04:50;;;;;;;5.97;2.17;;;;;;;;;;5016758;28;20668;-70
2022/07/28 01:07:17;;;;;;;7.10;1.83;;;;;;;;;;5010739;28;20202;-71
2022/07/28 01:10:07;;;;;;;7.20;1.80;;;;;;;;;;5026911;28;20196;-71
2022/07/28 01:12:41;;;;;;;5.47;1.90;;;;;;;;;;5023357;28;20891;-70
2022/07/28 01:15:34;;;;;;;8.43;2.10;;;;;;;;;;5008759;28;20285;-71
2022/07/28 01:18:04;;;;;;;6.63;1.83;;;;;;;;;;4994017;28;20203;-70
2022/07/28 01:20:33;;;;;;;7.23;2.00;;;;;;;;;;5008468;28;20184;-73
2022/07/28 01:23:13;;;;;;;5.73;2.07;;;;;;;;;;4997698;28;20299;-70
2022/07/28 01:26:15;;;;;;;4.43;1.93;;;;;;;;;;4995697;28;20184;-70
2022/07/28 01:28:42;;;;;;;5.80;2.20;;;;;;;;;;5029867;28;20215;-70
2022/07/28 01:31:09;;;;;;;5.37;1.97;;;;;;;;;;5039342;28;20219;-70
2022/07/28 01:33:37;;;;;;;5.43;2.03;;;;;;;;;;5011492;28;20219;-70
2022/07/28 01:36:10;;;;;;;4.90;2.13;;;;;;;;;;5008496;28;20199;-70
2022/07/28 01:38:55;;;;;;;6.47;2.20;;;;;;;;;;5001806;28;20171;-70
2022/07/28 01:41:22;;;;;;;6.07;2.00;;;;;;;;;;5007215;28;20283;-71
2022/07/28 01:44:07;;;;;;;5.30;2.17;;;;;;;;;;5010468;28;20175;-70
2022/07/28 01:46:34;;;;;;;6.30;1.97;;;;;;;;;;5029069;28;20196;-70
2022/07/28 01:49:20;;;;;;;7.27;2.30;;;;;;;;;;5011029;28;20194;-70
2022/07/28 01:51:47;;;;;;;8.63;1.93;;;;;;;;;;5008812;28;20192;-70
2022/07/28 01:54:13;;;;;;;5.30;2.13;;;;;;;;;;4997036;28;20184;-72
2022/07/28 01:56:41;;;;;;;6.03;2.17;;;;;;;;;;5008744;28;20282;-70
2022/07/28 01:59:10;;;;;;;6.40;1.97;;;;;;;;;;4995584;28;20259;-70
2022/07/28 02:01:41;;;;;;;5.73;2.13;;;;;;;;;;5006337;28;20789;-70
2022/07/28 02:04:08;;;;;;;5.87;2.20;;;;;;;;;;5002713;28;20200;-71
2022/07/28 02:06:35;;;;;;;5.77;2.10;;;;;;;;;;5003167;28;20196;-70
2022/07/28 02:09:03;;;;;;;5.93;2.27;;;;;;;;;;5000656;28;20711;-72
2022/07/28 02:11:39;;;;;;;4.13;1.90;;;;;;;;;;5006518;28;20309;-70
2022/07/28 02:14:07;;;;;;;5.43;1.90;;;;;;;;;;4996761;28;20279;-70
2022/07/28 02:16:33;;;;;;;5.73;1.80;;;;;;;;;;5009016;28;20192;-70
2022/07/28 02:19:00;;;;;;;5.50;2.10;;;;;;;;;;5003457;28;20242;-70
2022/07/28 02:21:28;;;;;;;5.67;1.87;;;;;;;;;;4985945;28;20220;-70
2022/07/28 02:23:55;;;;;;;5.73;1.87;;;;;;;;;;4998122;28;20248;-70
2022/07/28 02:26:23;;;;;;;6.47;1.60;;;;;;;;;;5003852;28;20228;-70
2022/07/28 02:28:51;;;;;;;4.47;2.00;;;;;;;;;;5007151;28;20282;-69
2022/07/28 02:31:50;;;;;;;3.50;1.60;;;;;;;;;;4998324;28;20224;-71
2022/07/28 02:34:18;;;;;;;3.73;1.60;;;;;;;;;;4983601;28;20603;-70
2022/07/28 02:36:50;;;;;;;4.40;1.83;;;;;;;;;;4991726;28;20235;-69
2022/07/28 02:39:17;;;;;;;3.37;1.60;;;;;;;;;;5007766;28;20224;-72
2022/07/28 02:41:44;;;;;;;3.67;2.00;;;;;;;;;;5007339;28;20204;-70
2022/07/28 02:44:13;;;;;;;4.33;1.60;;;;;;;;;;4996332;28;20200;-70
2022/07/28 02:46:43;;;;;;;2.80;1.33;;;;;;;;;;5009311;28;20200;-69
2022/07/28 02:49:11;;;;;;;4.27;1.70;;;;;;;;;;5009261;28;20249;-70
2022/07/28 02:51:39;;;;;;;3.97;1.70;;;;;;;;;;5005025;28;20279;-70
2022/07/28 02:54:06;;;;;;;4.40;1.77;;;;;;;;;;5004102;28;20700;-70
2022/07/28 02:56:33;;;;;;;5.23;1.93;;;;;;;;;;5008064;28;20659;-70
2022/07/28 02:59:00;;;;;;;5.50;1.73;;;;;;;;;;5016656;28;20663;-71
2022/07/28 03:01:27;;;;;;;4.43;2.07;;;;;;;;;;5008933;28;20187;-70
2022/07/28 03:04:12;;;;;;;1.77;1.53;;;;;;;;;;5015628;28;20659;-71
2022/07/28 03:06:40;;;;;;;5.40;2.17;;;;;;;;;;5023104;28;20234;-69
2022/07/28 03:09:08;;;;;;;6.03;2.10;;;;;;;;;;5024996;28;20214;-70
2022/07/28 03:11:35;;;;;;;6.57;1.90;;;;;;;;;;5021632;28;20234;-70
2022/07/28 03:14:02;;;;;;;7.77;2.33;;;;;;;;;;4998112;28;20279;-69
2022/07/28 03:16:29;;;;;;;4.60;2.00;;;;;;;;;;5020913;28;20191;-69
2022/07/28 03:18:56;;;;;;;4.53;2.10;;;;;;;;;;5017338;28;20200;-69
2022/07/28 03:21:23;;;;;;;7.43;2.30;;;;;;;;;;5011924;28;20656;-69
2022/07/28 03:23:50;;;;;;;6.53;2.00;;;;;;;;;;5012106;28;20204;-70
2022/07/28 03:26:17;;;;;;;4.80;1.80;;;;;;;;;;5009509;28;20315;-69
2022/07/28 03:28:44;;;;;;;7.33;2.47;;;;;;;;;;5019037;28;20204;-70
2022/07/28 03:31:28;;;;;;;6.20;1.97;;;;;;;;;;5027453;28;20560;-70
2022/07/28 03:33:55;;;;;;;5.03;2.30;;;;;;;;;;5007705;28;21038;-71
2022/07/28 03:36:40;;;;;;;6.90;2.30;;;;;;;;;;5001742;28;20183;-70
2022/07/28 03:39:10;;;;;;;4.47;1.97;;;;;;;;;;5023780;28;20601;-70
2022/07/28 03:41:54;;;;;;;5.80;2.03;;;;;;;;;;5020594;28;20180;-67
2022/07/28 03:44:21;;;;;;;5.07;2.17;;;;;;;;;;5024597;28;21075;-70
2022/07/28 03:47:05;;;;;;;3.53;1.90;;;;;;;;;;5019578;28;20179;-62
2022/07/28 03:49:32;;;;;;;7.20;2.10;;;;;;;;;;5031106;28;20191;-62
2022/07/28 03:52:17;;;;;;;5.87;2.00;;;;;;;;;;5030476;28;20179;-63
2022/07/28 03:54:44;;;;;;;5.97;2.07;;;;;;;;;;5017526;28;20195;-63
2022/07/28 03:57:11;;;;;;;11.10;2.10;;;;;;;;;;5031645;28;20227;-63
2022/07/28 03:59:37;;;;;;;4.90;1.90;;;;;;;;;;5031181;28;20293;-61
2022/07/28 04:02:04;;;;;;;9.97;2.00;;;;;;;;;;5021348;28;20195;-63
2022/07/28 04:04:31;;;;;;;5.33;1.90;;;;;;;;;;5025989;28;20195;-64
2022/07/28 04:06:58;;;;;;;4.80;1.70;;;;;;;;;;5031220;28;20241;-63
2022/07/28 04:09:24;;;;;;;9.83;2.17;;;;;;;;;;5031339;28;20206;-72
2022/07/28 04:11:51;;;;;;;12.73;2.43;;;;;;;;;;5030423;28;20214;-72
2022/07/28 04:14:18;;;;;;;10.23;2.20;;;;;;;;;;5029095;28;20200;-73
2022/07/28 04:16:46;;;;;;;8.50;2.20;;;;;;;;;;5031639;28;20199;-72
2022/07/28 04:19:30;;;;;;;7.13;2.33;;;;;;;;;;5031474;28;20168;-72
2022/07/28 04:21:57;;;;;;;6.40;1.93;;;;;;;;;;5030953;28;20282;-72
2022/07/28 04:24:42;;;;;;;8.90;2.40;;;;;;;;;;5030785;28;20171;-72
2022/07/28 04:27:09;;;;;;;6.10;2.10;;;;;;;;;;5031001;28;20198;-72
2022/07/28 04:29:53;;;;;;;7.03;2.00;;;;;;;;;;5019624;28;20179;-72
2022/07/28 04:32:21;;;;;;;9.10;2.30;;;;;;;;;;5029093;28;20198;-72
2022/07/28 04:34:49;;;;;;;6.10;2.20;;;;;;;;;;5029769;28;20655;-71
2022/07/28 04:37:16;;;;;;;6.00;1.80;;;;;;;;;;5031374;28;20298;-73
2022/07/28 04:39:44;;;;;;;8.37;1.90;;;;;;;;;;5005347;28;22603;-71
2022/07/28 04:42:10;;;;;;;5.97;2.00;;;;;;;;;;5020434;28;20199;-71
2022/07/28 04:44:41;;;;;;;12.77;2.93;;;;;;;;;;5011182;28;20202;-71
2022/07/28 04:47:08;;;;;;;8.47;1.80;;;;;;;;;;5011077;28;20223;-70
2022/07/28 04:49:34;;;;;;;7.73;2.00;;;;;;;;;;5017531;28;20204;-70
2022/07/28 04:52:02;;;;;;;7.03;2.07;;;;;;;;;;5011281;28;20598;-75
2022/07/28 04:54:29;;;;;;;6.53;2.10;;;;;;;;;;5011064;28;20267;-75
2022/07/28 04:56:56;;;;;;;7.40;1.90;;;;;;;;;;5010691;28;20247;-74
2022/07/28 04:59:23;;;;;;;5.77;2.30;;;;;;;;;;5009745;28;20298;-74
2022/07/28 05:01:50;;;;;;;7.23;2.13;;;;;;;;;;5011464;28;20184;-75
2022/07/28 05:04:17;;;;;;;6.97;2.20;;;;;;;;;;5009692;28;20184;-75
2022/07/28 05:06:45;;;;;;;6.03;1.97;;;;;;;;;;4993481;28;20552;-74
2022/07/28 05:09:12;;;;;;;7.17;2.27;;;;;;;;;;5011003;28;20200;-74
2022/07/28 05:11:39;;;;;;;7.40;2.00;;;;;;;;;;5008954;28;20234;-75
2022/07/28 05:14:06;;;;;;;8.13;2.00;;;;;;;;;;4977411;28;20664;-74
2022/07/28 05:16:37;;;;;;;7.83;2.20;;;;;;;;;;4994046;28;20200;-75
2022/07/28 05:19:05;;;;;;;6.23;1.63;;;;;;;;;;5010704;28;20191;-75
2022/07/28 05:21:33;;;;;;;6.37;2.03;;;;;;;;;;4993238;28;20200;-75
2022/07/28 05:23:59;;;;;;;7.97;2.10;;;;;;;;;;5010567;28;20192;-75
2022/07/28 05:26:27;;;;;;;5.67;1.60;;;;;;;;;;5005644;28;20199;-74
2022/07/28 05:28:54;;;;;;;9.10;2.20;;;;;;;;;;5030919;28;20203;-74
2022/07/28 05:31:38;;;;;;;3.87;1.60;;;;;;;;;;5030291;28;20697;-74
2022/07/28 05:34:05;;;;;;;6.07;2.17;;;;;;;;;;5030330;28;20233;-75
2022/07/28 05:36:32;;;;;;;9.40;2.03;;;;;;;;;;5030278;28;20223;-74
2022/07/28 05:38:59;;;;;;;5.23;2.00;;;;;;;;;;5030111;28;20218;-75
2022/07/28 05:41:26;;;;;;;7.27;2.37;;;;;;;;;;5028986;28;20242;-74
2022/07/28 05:43:54;;;;;;;4.77;1.97;;;;;;;;;;5030499;28;20196;-75
2022/07/28 05:46:21;;;;;;;10.47;2.17;;;;;;;;;;5029865;28;20195;-74
2022/07/28 05:48:50;;;;;;;6.97;1.83;;;;;;;;;;5030324;28;20198;-74
2022/07/28 05:51:17;;;;;;;6.80;1.80;;;;;;;;;;5029759;28;20211;-73
2022/07/28 05:54:02;;;;;;;8.63;2.23;;;;;;;;;;5014836;28;20164;-74
2022/07/28 05:56:28;;;;;;;7.70;2.17;;;;;;;;;;5029734;28;20772;-74
2022/07/28 05:59:13;;;;;;;5.07;1.70;;;;;;;;;;5012033;28;20175;-73
2022/07/28 06:01:40;;;;;;;5.03;1.77;;;;;;;;;;5029932;28;20206;-74
2022/07/28 06:04:25;;;;;;;5.70;2.10;;;;;;;;;;5014889;28;20249;-73
2022/07/28 06:06:54;;;;;;;3.43;1.50;;;;;;;;;;5012431;28;20214;-73
2022/07/28 06:09:21;;;;;;;7.33;1.90;;;;;;;;;;5029554;28;20195;-74
2022/07/28 06:11:51;;;;;;;8.30;1.80;;;;;;;;;;5011413;28;20231;-74
2022/07/28 06:14:18;;;;;;;5.77;1.77;;;;;;;;;;4996278;28;20258;-74
2022/07/28 06:16:49;;;;;;;5.50;1.70;;;;;;;;;;5029912;28;20274;-74
2022/07/28 06:19:17;;;;;;;3.67;1.33;;;;;;;;;;5012951;28;20191;-75
2022/07/28 06:22:02;;;;;;;5.97;1.70;;;;;;;;;;5014030;28;20175;-74
2022/07/28 06:24:29;;;;;;;8.07;1.50;;;;;;;;;;5012262;28;20172;-75
2022/07/28 06:27:13;;;;;;;7.40;1.70;;;;;;;;;;5029173;28;20717;-75
2022/07/28 06:29:40;;;;;;;5.37;1.60;;;;;;;;;;5029244;28;20195;-74
2022/07/28 06:32:25;;;;;;;8.77;1.73;;;;;;;;;;5028855;28;20261;-75
2022/07/28 06:34:52;;;;;;;7.37;1.93;;;;;;;;;;5029607;28;20188;-74
2022/07/28 06:37:19;;;;;;;6.03;1.40;;;;;;;;;;5028849;28;20195;-76
2022/07/28 06:39:45;;;;;;;5.03;1.60;;;;;;;;;;5011494;28;20286;-75
2022/07/28 06:42:12;;;;;;;7.73;1.50;;;;;;;;;;5028931;28;20215;-74
2022/07/28 06:44:39;;;;;;;7.63;1.80;;;;;;;;;;5028642;28;20289;-75
2022/07/28 06:47:24;;;;;;;6.90;1.53;;;;;;;;;;5028831;28;20195;-74
2022/07/28 06:49:51;;;;;;;6.23;1.80;;;;;;;;;;5029331;28;20201;-74
2022/07/28 06:52:19;;;;;;;7.43;1.80;;;;;;;;;;5028592;28;20207;-76
2022/07/28 06:54:49;;;;;;;11.30;1.83;;;;;;;;;;5011596;28;20187;-75
2022/07/28 06:57:17;;;;;;;6.20;1.40;;;;;;;;;;5028403;28;20618;-75
2022/07/28 06:59:45;;;;;;;4.67;1.50;;;;;;;;;;5028927;28;20186;-75
2022/07/28 07:02:12;;;;;;;5.00;1.60;;;;;;;;;;4995077;28;20211;-75
2022/07/28 07:04:39;;;;;;;6.80;1.30;;;;;;;;;;5028994;28;20192;-75
2022/07/28 07:07:07;;;;;;;7.07;1.40;;;;;;;;;;5011428;28;20191;-75
2022/07/28 07:09:45;;;;;;;7.77;1.57;;;;;;;;;;5012918;28;20183;-75
2022/07/28 07:12:11;;;;;;;6.50;1.20;;;;;;;;;;5028269;28;20211;-75
2022/07/28 07:14:38;;;;;;;3.57;1.20;;;;;;;;;;5010905;28;20815;-75
2022/07/28 07:17:05;;;;;;;5.33;1.30;;;;;;;;;;5010419;28;20241;-75
2022/07/28 07:19:32;;;;;;;9.10;2.37;;;;;;;;;;5028982;28;20686;-75
2022/07/28 07:21:59;;;;;;;4.70;1.43;;;;;;;;;;5010144;28;20191;-75
2022/07/28 07:24:26;;;;;;;5.40;1.30;;;;;;;;;;5010216;28;20199;-75
2022/07/28 07:26:53;;;;;;;5.57;1.27;;;;;;;;;;5028550;28;20194;-75
2022/07/28 07:29:21;;;;;;;5.13;1.30;;;;;;;;;;5010789;28;20191;-75
2022/07/28 07:31:48;;;;;;;4.50;1.33;;;;;;;;;;5028537;28;20318;-75
2022/07/28 07:34:19;;;;;;;8.37;1.93;;;;;;;;;;5028021;28;20187;-76
2022/07/28 07:36:45;;;;;;;4.83;1.47;;;;;;;;;;4994622;28;20199;-76
2022/07/28 07:39:30;;;;;;;7.13;1.27;;;;;;;;;;5028604;28;20164;-75
2022/07/28 07:41:57;;;;;;;6.73;1.27;;;;;;;;;;5027682;28;20188;-75
2022/07/28 07:44:41;;;;;;;3.37;1.00;;;;;;;;;;5028184;28;20195;-75
2022/07/28 07:47:17;;;;;;;4.43;1.47;;;;;;;;;;5010016;28;20252;-74
2022/07/28 07:50:01;;;;;;;3.53;1.00;;;;;;;;;;5013684;28;20163;-76
2022/07/28 07:52:30;;;;;;;5.07;1.10;;;;;;;;;;5011269;28;20306;-75
2022/07/28 07:55:14;;;;;;;5.87;1.10;;;;;;;;;;5013308;28;20179;-74
2022/07/28 07:57:42;;;;;;;3.07;0.90;;;;;;;;;;5027949;28;20607;-75
2022/07/28 08:00:09;;;;;;;4.67;1.30;;;;;;;;;;5010700;28;20266;-75
2022/07/28 08:02:55;;;;;;;5.43;1.10;;;;;;;;;;5009983;28;20200;-75
2022/07/28 08:05:22;;;;;;;5.60;1.33;;;;;;;;;;5028036;28;20291;-75
2022/07/28 08:08:02;;;;;;;5.97;1.20;;;;;;;;;;5027964;28;20191;-76
2022/07/28 08:10:28;;;;;;;5.67;1.10;;;;;;;;;;5010276;28;20187;-75
2022/07/28 08:12:55;;;;;;;5.30;1.47;;;;;;;;;;5027755;28;20991;-77
2022/07/28 08:15:22;;;;;;;4.10;0.90;;;;;;;;;;5028180;28;20187;-75
2022/07/28 08:17:49;;;;;;;6.73;1.33;;;;;;;;;;5027779;28;20180;-75
2022/07/28 08:20:16;;;;;;;4.37;1.10;;;;;;;;;;5027798;28;20584;-75
2022/07/28 08:22:47;;;;;;;4.77;1.20;;;;;;;;;;5028079;28;20222;-74
2022/07/28 08:25:14;;;;;;;4.67;1.10;;;;;;;;;;5010306;28;20219;-73
2022/07/28 08:27:41;;;;;;;6.80;1.57;;;;;;;;;;5027643;28;20188;-75
2022/07/28 08:30:08;;;;;;;4.67;1.53;;;;;;;;;;5028068;28;20202;-74
2022/07/28 08:32:37;;;;;;;3.33;1.20;;;;;;;;;;4993607;28;20268;-76
2022/07/28 08:35:21;;;;;;;4.97;1.80;;;;;;;;;;5030482;28;20627;-74
2022/07/28 08:38:00;;;;;;;2.87;0.93;;;;;;;;;;5031420;28;20195;-75
2022/07/28 08:40:27;;;;;;;5.13;1.00;;;;;;;;;;5031330;28;20539;-73
2022/07/28 08:43:02;;;;;;;3.73;1.30;;;;;;;;;;5031396;28;20195;-74
2022/07/28 08:45:46;;;;;;;7.53;1.20;;;;;;;;;;5031257;28;20167;-73
2022/07/28 08:48:13;;;;;;;4.97;1.27;;;;;;;;;;5013842;28;20214;-74
2022/07/28 08:50:41;;;;;;;4.83;1.20;;;;;;;;;;5013681;28;20277;-74
2022/07/28 08:53:08;;;;;;;4.87;1.30;;;;;;;;;;5031293;28;20187;-73
2022/07/28 08:55:34;;;;;;;3.30;1.00;;;;;;;;;;4997005;28;20351;-75
2022/07/28 08:58:01;;;;;;;5.17;1.43;;;;;;;;;;5032456;28;20738;-75
2022/07/28 09:00:28;;;;;;;5.83;1.10;;;;;;;;;;5014985;28;20199;-75
2022/07/28 09:02:55;;;;;;;3.70;1.00;;;;;;;;;;5014524;28;20492;-74
2022/07/28 09:05:22;;;;;;;5.00;1.20;;;;;;;;;;5014909;28;20688;-74
2022/07/28 09:07:50;;;;;;;4.10;1.00;;;;;;;;;;5015055;28;20179;-74
2022/07/28 09:10:20;;;;;;;3.60;1.60;;;;;;;;;;5015525;28;20206;-75
2022/07/28 09:12:47;;;;;;;2.97;0.90;;;;;;;;;;4998277;28;20215;-75
2022/07/28 09:15:14;;;;;;;4.47;1.17;;;;;;;;;;5032235;28;20705;-75
2022/07/28 09:17:41;;;;;;;3.20;1.07;;;;;;;;;;5014570;28;20325;-74
2022/07/28 09:20:08;;;;;;;5.00;1.30;;;;;;;;;;5032419;28;20509;-74
2022/07/28 09:22:52;;;;;;;6.07;1.20;;;;;;;;;;5031897;28;20183;-75
2022/07/28 09:25:20;;;;;;;5.20;0.90;;;;;;;;;;5031945;28;20230;-75
2022/07/28 09:27:47;;;;;;;5.40;1.33;;;;;;;;;;5031930;28;20249;-75
2022/07/28 09:30:14;;;;;;;2.90;1.07;;;;;;;;;;5031779;28;20202;-75
2022/07/28 09:32:41;;;;;;;4.17;1.03;;;;;;;;;;5031701;28;20211;-74
2022/07/28 09:35:18;;;;;;;4.30;1.07;;;;;;;;;;5014319;28;20200;-75
2022/07/28 09:37:45;;;;;;;3.90;0.83;;;;;;;;;;5014721;28;20187;-74
2022/07/28 09:40:12;;;;;;;4.53;1.20;;;;;;;;;;5014248;28;20199;-74
2022/07/28 09:42:45;;;;;;;3.70;0.87;;;;;;;;;;5031343;28;20219;-75
2022/07/28 09:45:12;;;;;;;5.20;1.10;;;;;;;;;;5013735;28;20614;-74
2022/07/28 09:47:55;;;;;;;2.83;1.20;;;;;;;;;;5015479;28;20187;-75
2022/07/28 09:50:26;;;;;;;2.93;1.10;;;;;;;;;;5013955;28;20187;-75
2022/07/28 09:52:55;;;;;;;5.50;1.00;;;;;;;;;;5014678;28;20293;-74
2022/07/28 09:55:23;;;;;;;4.40;1.00;;;;;;;;;;5014354;28;20224;-74
2022/07/28 09:57:50;;;;;;;3.60;0.93;;;;;;;;;;5031116;28;20761;-74
2022/07/28 10:00:35;;;;;;;3.13;1.10;;;;;;;;;;5031280;28;20175;-76
2022/07/28 10:03:02;;;;;;;3.50;1.07;;;;;;;;;;5031008;28;20218;-76
2022/07/28 10:05:39;;;;;;;3.20;1.00;;;;;;;;;;5013545;28;20373;-75
2022/07/28 10:08:06;;;;;;;2.97;1.00;;;;;;;;;;5031288;28;20598;-75
2022/07/28 10:10:59;;;;;;;4.50;1.00;;;;;;;;;;5016329;28;20230;-75
2022/07/28 10:13:26;;;;;;;3.63;0.90;;;;;;;;;;5030859;28;20206;-75
2022/07/28 10:16:09;;;;;;;3.57;1.13;;;;;;;;;;5030029;28;20200;-75
2022/07/28 10:18:39;;;;;;;4.00;1.30;;;;;;;;;;5030863;28;20191;-75
2022/07/28 10:21:23;;;;;;;3.37;1.07;;;;;;;;;;5030935;28;20250;-74
2022/07/28 10:23:58;;;;;;;2.40;0.70;;;;;;;;;;4997189;28;20214;-74
2022/07/28 10:26:27;;;;;;;4.03;1.03;;;;;;;;;;5013181;28;20253;-74
2022/07/28 10:28:54;;;;;;;3.87;0.90;;;;;;;;;;5030792;28;20176;-75
2022/07/28 10:31:28;;;;;;;2.50;0.80;;;;;;;;;;5013180;28;20188;-74
2022/07/28 10:33:56;;;;;;;3.90;0.73;;;;;;;;;;5030463;28;20167;-74
2022/07/28 10:36:23;;;;;;;5.53;0.90;;;;;;;;;;4996938;28;20257;-74
2022/07/28 10:38:50;;;;;;;4.87;1.00;;;;;;;;;;5030537;28;20623;-74
2022/07/28 10:41:17;;;;;;;5.17;1.00;;;;;;;;;;5013179;28;20209;-74
2022/07/28 10:43:46;;;;;;;3.53;1.10;;;;;;;;;;5013404;28;20512;-75
2022/07/28 10:46:14;;;;;;;2.63;1.00;;;;;;;;;;5013578;28;20326;-74
2022/07/28 10:48:42;;;;;;;3.33;1.20;;;;;;;;;;5012860;28;20187;-75
2022/07/28 10:51:09;;;;;;;4.33;0.90;;;;;;;;;;4996567;28;20202;-74
2022/07/28 10:53:44;;;;;;;5.43;1.00;;;;;;;;;;5012426;28;20219;-74
2022/07/28 10:56:24;;;;;;;6.40;1.40;;;;;;;;;;4996517;28;20223;-74
2022/07/28 10:59:02;;;;;;;5.43;1.30;;;;;;;;;;5013217;28;20184;-75
2022/07/28 11:01:34;;;;;;;6.93;1.20;;;;;;;;;;5030353;28;20191;-74
2022/07/28 11:04:35;;;;;;;6.30;1.43;;;;;;;;;;5014922;28;20191;-74
2022/07/28 11:07:09;;;;;;;5.13;1.67;;;;;;;;;;5030431;28;20595;-74
2022/07/28 11:09:36;;;;;;;2.90;1.00;;;;;;;;;;5012072;28;20253;-75
2022/07/28 11:12:03;;;;;;;3.53;1.07;;;;;;;;;;5030344;28;20215;-75
2022/07/28 11:14:32;;;;;;;3.23;0.80;;;;;;;;;;5030072;28;20191;-75
2022/07/28 11:17:02;;;;;;;2.33;1.00;;;;;;;;;;5030332;28;20184;-75
2022/07/28 11:19:31;;;;;;;2.07;1.07;;;;;;;;;;5030210;28;20191;-76
2022/07/28 11:22:20;;;;;;;6.77;1.53;;;;;;;;;;5014787;28;20230;-74
2022/07/28 11:25:05;;;;;;;6.80;1.17;;;;;;;;;;5030159;28;20275;-76
2022/07/28 11:27:51;;;;;;;5.80;1.10;;;;;;;;;;4992774;28;20192;-75
2022/07/28 11:30:26;;;;;;;5.67;1.07;;;;;;;;;;5010186;28;20247;-74
2022/07/28 11:32:53;;;;;;;6.43;1.10;;;;;;;;;;5010590;28;20703;-75
2022/07/28 11:35:20;;;;;;;5.30;1.20;;;;;;;;;;5010257;28;20204;-75
2022/07/28 11:37:59;;;;;;;6.60;1.10;;;;;;;;;;4993014;28;20219;-75
2022/07/28 11:40:36;;;;;;;4.50;1.13;;;;;;;;;;5010286;28;20294;-75
2022/07/28 11:46:07;;;;;;;5.37;0.97;;;;;;;;;;5010086;28;20243;-76
2022/07/28 11:48:38;;;;;;;2.47;1.00;;;;;;;;;;5009945;28;20198;-75
2022/07/28 11:51:09;;;;;;;3.90;1.00;;;;;;;;;;4992461;28;20204;-75
2022/07/28 11:53:39;;;;;;;4.60;1.23;;;;;;;;;;4992214;28;20305;-77
2022/07/28 11:56:15;;;;;;;6.50;1.23;;;;;;;;;;5008821;28;20238;-75
2022/07/28 11:58:42;;;;;;;3.53;0.77;;;;;;;;;;4992881;28;20195;-76
2022/07/28 12:01:10;;;;;;;5.00;1.00;;;;;;;;;;4992800;28;20220;-76
2022/07/28 12:03:43;;;;;;;5.03;1.00;;;;;;;;;;5008698;28;20188;-76
2022/07/28 12:06:24;;;;;;;2.77;0.90;;;;;;;;;;5009890;28;20192;-76
2022/07/28 12:09:21;;;;;;;4.93;0.93;;;;;;;;;;5008199;28;20237;-76
2022/07/28 12:11:56;;;;;;;2.77;0.77;;;;;;;;;;5013429;28;20249;-75
2022/07/28 12:14:27;;;;;;;2.83;0.87;;;;;;;;;;4996384;28;20286;-75
2022/07/28 12:16:57;;;;;;;4.43;1.03;;;;;;;;;;4997203;28;20193;-75
2022/07/28 12:19:24;;;;;;;3.90;0.90;;;;;;;;;;5013674;28;20188;-74
2022/07/28 12:21:58;;;;;;;3.30;0.97;;;;;;;;;;4980649;28;20192;-75
2022/07/28 12:24:26;;;;;;;5.27;1.00;;;;;;;;;;5013416;28;20195;-75
2022/07/28 12:26:53;;;;;;;6.47;1.20;;;;;;;;;;5012187;28;20195;-75
2022/07/28 12:29:20;;;;;;;4.03;1.07;;;;;;;;;;5033076;28;20547;-75
2022/07/28 12:31:54;;;;;;;6.87;1.10;;;;;;;;;;5033288;28;20187;-75
2022/07/28 12:34:21;;;;;;;5.43;1.20;;;;;;;;;;5015777;28;20654;-76
2022/07/28 12:36:58;;;;;;;5.77;1.33;;;;;;;;;;5016433;28;20184;-75
2022/07/28 12:39:25;;;;;;;4.90;1.20;;;;;;;;;;5033162;28;20217;-75
2022/07/28 12:42:02;;;;;;;17.17;2.17;;;;;;;;;;4999550;28;20187;-76
2022/07/28 12:44:33;;;;;;;4.03;1.10;;;;;;;;;;5015708;28;20625;-76
2022/07/28 12:47:00;;;;;;;5.43;1.20;;;;;;;;;;5015463;28;20198;-75
2022/07/28 12:49:27;;;;;;;32.27;3.70;;;;;;;;;;5015334;28;20257;-76
2022/07/28 12:51:54;;;;;;;5.40;1.40;;;;;;;;;;5032610;28;20277;-76
2022/07/28 12:54:32;;;;;;;4.73;0.90;;;;;;;;;;5033056;28;20542;-76
2022/07/28 12:56:59;;;;;;;5.93;1.17;;;;;;;;;;5014998;28;20744;-76
2022/07/28 12:59:30;;;;;;;2.33;0.90;;;;;;;;;;5015205;28;20215;-75
2022/07/28 13:01:57;;;;;;;2.97;1.00;;;;;;;;;;5032481;28;20192;-74
2022/07/28 13:04:42;;;;;;;3.47;1.03;;;;;;;;;;5032749;28;20195;-76
2022/07/28 13:07:12;;;;;;;3.07;1.10;;;;;;;;;;5032510;28;20198;-74
2022/07/28 13:09:46;;;;;;;4.53;0.90;;;;;;;;;;5032461;28;20250;-74
2022/07/28 13:12:26;;;;;;;2.90;0.97;;;;;;;;;;5032338;28;20218;-75
2022/07/28 13:15:13;;;;;;;2.27;0.80;;;;;;;;;;5032165;28;20531;-75
2022/07/28 13:17:47;;;;;;;7.00;1.10;;;;;;;;;;5032121;28;20195;-75
2022/07/28 13:20:14;;;;;;;4.03;1.03;;;;;;;;;;5013991;28;20604;-75
2022/07/28 13:22:44;;;;;;;2.20;0.87;;;;;;;;;;5014444;28;20193;-75
2022/07/28 13:25:11;;;;;;;3.33;0.90;;;;;;;;;;5031993;28;20207;-76
2022/07/28 13:27:38;;;;;;;7.00;1.17;;;;;;;;;;5032046;28;20265;-76
2022/07/28 13:30:05;;;;;;;4.57;1.00;;;;;;;;;;5014523;28;20595;-75
2022/07/28 13:32:32;;;;;;;3.30;0.90;;;;;;;;;;5014320;28;20243;-76
2022/07/28 13:34:59;;;;;;;6.63;1.23;;;;;;;;;;5032077;28;20194;-76
2022/07/28 13:37:27;;;;;;;2.27;0.87;;;;;;;;;;5014335;28;20249;-76
2022/07/28 13:39:54;;;;;;;4.43;1.00;;;;;;;;;;5014423;28;20199;-74
2022/07/28 13:42:22;;;;;;;4.73;1.00;;;;;;;;;;5031576;28;20314;-75
2022/07/28 13:44:49;;;;;;;2.47;0.90;;;;;;;;;;5031902;28;20246;-75
2022/07/28 13:47:16;;;;;;;4.23;1.00;;;;;;;;;;5031355;28;20214;-75
2022/07/28 13:49:44;;;;;;;2.43;0.90;;;;;;;;;;5031841;28;20191;-75
2022/07/28 13:52:15;;;;;;;4.67;1.00;;;;;;;;;;5014009;28;20192;-75
2022/07/28 13:54:58;;;;;;;4.10;1.00;;;;;;;;;;5030966;28;20646;-75
2022/07/28 13:57:29;;;;;;;3.97;1.20;;;;;;;;;;5013700;28;20203;-75
2022/07/28 14:00:16;;;;;;;4.37;1.20;;;;;;;;;;5014509;28;20195;-75
2022/07/28 14:02:48;;;;;;;5.00;1.00;;;;;;;;;;5031484;28;20218;-75
2022/07/28 14:05:15;;;;;;;4.27;0.97;;;;;;;;;;5013856;28;20962;-76
2022/07/28 14:07:42;;;;;;;4.03;0.93;;;;;;;;;;5031291;28;20681;-76
2022/07/28 14:10:15;;;;;;;4.23;0.93;;;;;;;;;;5014601;28;20188;-76
2022/07/28 14:12:42;;;;;;;3.13;0.87;;;;;;;;;;5031048;28;20191;-74
2022/07/28 14:15:11;;;;;;;3.37;0.93;;;;;;;;;;5031639;28;20595;-75
2022/07/28 14:17:38;;;;;;;3.87;1.17;;;;;;;;;;5013488;28;20271;-75
2022/07/28 14:20:11;;;;;;;6.03;1.00;;;;;;;;;;5031288;28;20187;-76
2022/07/28 14:22:38;;;;;;;2.87;0.97;;;;;;;;;;5013809;28;20187;-76
2022/07/28 14:25:05;;;;;;;3.53;1.10;;;;;;;;;;5013631;28;20222;-75
2022/07/28 14:27:35;;;;;;;3.70;1.13;;;;;;;;;;5013114;28;20571;-75
2022/07/28 14:30:02;;;;;;;3.20;0.87;;;;;;;;;;5031020;28;20195;-75
2022/07/28 14:32:30;;;;;;;3.53;1.00;;;;;;;;;;5013115;28;20639;-75
2022/07/28 14:34:57;;;;;;;3.87;1.13;;;;;;;;;;5013284;28;20192;-75
2022/07/28 14:37:24;;;;;;;3.07;0.90;;;;;;;;;;4997184;28;20373;-75
2022/07/28 14:39:52;;;;;;;3.60;1.00;;;;;;;;;;5013577;28;20408;-75
2022/07/28 14:42:19;;;;;;;2.93;0.80;;;;;;;;;;5013064;28;20702;-76
2022/07/28 14:44:46;;;;;;;2.47;0.90;;;;;;;;;;5030823;28;20191;-75
2022/07/28 14:47:14;;;;;;;4.00;1.00;;;;;;;;;;5013065;28;20199;-75
2022/07/28 14:49:41;;;;;;;4.17;1.03;;;;;;;;;;5030862;28;20183;-75
2022/07/28 14:52:24;;;;;;;4.50;0.93;;;;;;;;;;5015114;28;20277;-74
2022/07/28 14:54:52;;;;;;;4.40;0.80;;;;;;;;;;5013148;28;20190;-75
2022/07/28 14:57:19;;;;;;;4.47;0.90;;;;;;;;;;5012482;28;20250;-75
2022/07/28 15:00:09;;;;;;;4.07;0.87;;;;;;;;;;5015879;28;20187;-75
2022/07/28 15:02:36;;;;;;;2.97;0.87;;;;;;;;;;5030145;28;20225;-74
2022/07/28 15:05:04;;;;;;;1.90;0.70;;;;;;;;;;5013010;28;20709;-75
2022/07/28 15:07:31;;;;;;;1.87;0.70;;;;;;;;;;5013057;28;20712;-75